sensor_id;sensor_type;location;lat;lon;timestamp;P1;durP1;ratioP1;P2;durP2;ratioP2
60225;SDS011;46090;48.436;11.410;2024-02-21T00:00:07;8.63;;;2.72;;
60225;SDS011;46090;48.436;11.410;2024-02-21T00:02:34;9.45;;;2.78;;
60225;SDS011;46090;48.436;11.410;2024-02-21T00:05:02;9.20;;;2.65;;
60225;SDS011;46090;48.436;11.410;2024-02-21T00:07:29;7.78;;;2.80;;
60225;SDS011;46090;48.436;11.410;2024-02-21T00:09:56;11.07;;;2.92;;
60225;SDS011;46090;48.436;11.410;2024-02-21T00:12:23;6.30;;;2.40;;
60225;SDS011;46090;48.436;11.410;2024-02-21T00:14:50;10.05;;;2.63;;
60225;SDS011;46090;48.436;11.410;2024-02-21T00:17:17;8.63;;;2.42;;
60225;SDS011;46090;48.436;11.410;2024-02-21T00:19:43;8.57;;;2.65;;
60225;SDS011;46090;48.436;11.410;2024-02-21T00:22:10;9.57;;;2.38;;
60225;SDS011;46090;48.436;11.410;2024-02-21T00:24:37;9.45;;;2.25;;
60225;SDS011;46090;48.436;11.410;2024-02-21T00:27:04;7.38;;;2.53;;
60225;SDS011;46090;48.436;11.410;2024-02-21T00:29:31;8.55;;;2.72;;
60225;SDS011;46090;48.436;11.410;2024-02-21T00:31:58;7.18;;;2.78;;
60225;SDS011;46090;48.436;11.410;2024-02-21T00:34:25;5.80;;;2.33;;
60225;SDS011;46090;48.436;11.410;2024-02-21T00:36:51;7.15;;;2.30;;
60225;SDS011;46090;48.436;11.410;2024-02-21T00:39:18;9.10;;;2.58;;
60225;SDS011;46090;48.436;11.410;2024-02-21T00:41:45;10.68;;;2.70;;
60225;SDS011;46090;48.436;11.410;2024-02-21T00:44:11;7.10;;;2.72;;
60225;SDS011;46090;48.436;11.410;2024-02-21T00:46:38;8.30;;;2.75;;
60225;SDS011;46090;48.436;11.410;2024-02-21T00:49:05;9.68;;;3.00;;
60225;SDS011;46090;48.436;11.410;2024-02-21T00:51:33;8.52;;;2.55;;
60225;SDS011;46090;48.436;11.410;2024-02-21T00:53:59;5.40;;;2.38;;
60225;SDS011;46090;48.436;11.410;2024-02-21T00:56:27;9.38;;;2.85;;
60225;SDS011;46090;48.436;11.410;2024-02-21T00:58:54;8.70;;;2.63;;
60225;SDS011;46090;48.436;11.410;2024-02-21T01:01:22;9.43;;;2.70;;
60225;SDS011;46090;48.436;11.410;2024-02-21T01:03:50;5.15;;;2.22;;
60225;SDS011;46090;48.436;11.410;2024-02-21T01:06:19;8.85;;;2.63;;
60225;SDS011;46090;48.436;11.410;2024-02-21T01:08:47;8.50;;;2.83;;
60225;SDS011;46090;48.436;11.410;2024-02-21T01:11:14;6.30;;;2.10;;
60225;SDS011;46090;48.436;11.410;2024-02-21T01:13:41;6.22;;;2.45;;
60225;SDS011;46090;48.436;11.410;2024-02-21T01:16:08;10.00;;;3.13;;
60225;SDS011;46090;48.436;11.410;2024-02-21T01:18:37;11.77;;;2.78;;
60225;SDS011;46090;48.436;11.410;2024-02-21T01:21:04;11.32;;;2.78;;
60225;SDS011;46090;48.436;11.410;2024-02-21T01:23:36;7.63;;;2.58;;
60225;SDS011;46090;48.436;11.410;2024-02-21T01:26:03;7.70;;;2.40;;
60225;SDS011;46090;48.436;11.410;2024-02-21T01:28:30;7.85;;;2.42;;
60225;SDS011;46090;48.436;11.410;2024-02-21T01:30:57;8.68;;;2.38;;
60225;SDS011;46090;48.436;11.410;2024-02-21T01:33:24;9.18;;;2.58;;
60225;SDS011;46090;48.436;11.410;2024-02-21T01:35:50;8.73;;;2.95;;
60225;SDS011;46090;48.436;11.410;2024-02-21T01:38:17;10.10;;;2.60;;
60225;SDS011;46090;48.436;11.410;2024-02-21T01:40:44;7.68;;;2.45;;
60225;SDS011;46090;48.436;11.410;2024-02-21T01:43:15;6.65;;;2.40;;
60225;SDS011;46090;48.436;11.410;2024-02-21T01:45:43;9.52;;;2.72;;
60225;SDS011;46090;48.436;11.410;2024-02-21T01:48:10;8.02;;;2.35;;
60225;SDS011;46090;48.436;11.410;2024-02-21T01:50:37;7.75;;;2.60;;
60225;SDS011;46090;48.436;11.410;2024-02-21T01:53:04;7.43;;;2.22;;
60225;SDS011;46090;48.436;11.410;2024-02-21T01:55:31;6.93;;;2.05;;
60225;SDS011;46090;48.436;11.410;2024-02-21T01:57:58;8.35;;;2.25;;
60225;SDS011;46090;48.436;11.410;2024-02-21T02:00:25;5.95;;;2.28;;
60225;SDS011;46090;48.436;11.410;2024-02-21T02:02:51;7.90;;;2.40;;
60225;SDS011;46090;48.436;11.410;2024-02-21T02:05:18;6.10;;;2.30;;
60225;SDS011;46090;48.436;11.410;2024-02-21T02:07:48;6.80;;;2.13;;
60225;SDS011;46090;48.436;11.410;2024-02-21T02:10:15;9.32;;;2.75;;
60225;SDS011;46090;48.436;11.410;2024-02-21T02:12:41;6.78;;;2.17;;
60225;SDS011;46090;48.436;11.410;2024-02-21T02:15:08;5.85;;;2.33;;
60225;SDS011;46090;48.436;11.410;2024-02-21T02:17:35;7.45;;;2.50;;
60225;SDS011;46090;48.436;11.410;2024-02-21T02:20:02;6.85;;;2.30;;
60225;SDS011;46090;48.436;11.410;2024-02-21T02:22:31;7.28;;;2.22;;
60225;SDS011;46090;48.436;11.410;2024-02-21T02:24:58;8.73;;;2.50;;
60225;SDS011;46090;48.436;11.410;2024-02-21T02:27:25;9.73;;;2.40;;
60225;SDS011;46090;48.436;11.410;2024-02-21T02:29:52;8.52;;;2.67;;
60225;SDS011;46090;48.436;11.410;2024-02-21T02:32:19;7.43;;;2.08;;
60225;SDS011;46090;48.436;11.410;2024-02-21T02:34:45;8.65;;;2.33;;
60225;SDS011;46090;48.436;11.410;2024-02-21T02:37:12;6.47;;;2.45;;
60225;SDS011;46090;48.436;11.410;2024-02-21T02:39:39;8.05;;;2.00;;
60225;SDS011;46090;48.436;11.410;2024-02-21T02:42:05;5.57;;;2.08;;
60225;SDS011;46090;48.436;11.410;2024-02-21T02:44:33;7.05;;;2.05;;
60225;SDS011;46090;48.436;11.410;2024-02-21T02:46:59;7.78;;;2.13;;
60225;SDS011;46090;48.436;11.410;2024-02-21T02:49:26;6.55;;;2.15;;
60225;SDS011;46090;48.436;11.410;2024-02-21T02:51:53;6.43;;;1.77;;
60225;SDS011;46090;48.436;11.410;2024-02-21T02:54:19;6.15;;;2.00;;
60225;SDS011;46090;48.436;11.410;2024-02-21T02:56:46;7.07;;;2.20;;
60225;SDS011;46090;48.436;11.410;2024-02-21T02:59:13;7.78;;;2.17;;
60225;SDS011;46090;48.436;11.410;2024-02-21T03:01:39;5.65;;;1.58;;
60225;SDS011;46090;48.436;11.410;2024-02-21T03:04:06;5.82;;;1.85;;
60225;SDS011;46090;48.436;11.410;2024-02-21T03:06:33;6.38;;;1.88;;
60225;SDS011;46090;48.436;11.410;2024-02-21T03:09:00;6.57;;;1.98;;
60225;SDS011;46090;48.436;11.410;2024-02-21T03:11:27;6.55;;;2.33;;
60225;SDS011;46090;48.436;11.410;2024-02-21T03:13:56;7.63;;;1.98;;
60225;SDS011;46090;48.436;11.410;2024-02-21T03:16:23;5.90;;;1.95;;
60225;SDS011;46090;48.436;11.410;2024-02-21T03:18:50;7.00;;;1.90;;
60225;SDS011;46090;48.436;11.410;2024-02-21T03:21:17;9.20;;;1.98;;
60225;SDS011;46090;48.436;11.410;2024-02-21T03:23:43;7.63;;;2.00;;
60225;SDS011;46090;48.436;11.410;2024-02-21T03:26:10;6.30;;;2.00;;
60225;SDS011;46090;48.436;11.410;2024-02-21T03:28:37;6.63;;;1.80;;
60225;SDS011;46090;48.436;11.410;2024-02-21T03:31:06;6.30;;;2.10;;
60225;SDS011;46090;48.436;11.410;2024-02-21T03:33:32;5.13;;;1.65;;
60225;SDS011;46090;48.436;11.410;2024-02-21T03:36:00;6.03;;;1.52;;
60225;SDS011;46090;48.436;11.410;2024-02-21T03:38:26;5.05;;;1.63;;
60225;SDS011;46090;48.436;11.410;2024-02-21T03:40:53;7.72;;;1.70;;
60225;SDS011;46090;48.436;11.410;2024-02-21T03:43:20;6.88;;;1.70;;
60225;SDS011;46090;48.436;11.410;2024-02-21T03:45:46;8.38;;;1.95;;
60225;SDS011;46090;48.436;11.410;2024-02-21T03:48:13;8.18;;;2.17;;
60225;SDS011;46090;48.436;11.410;2024-02-21T03:50:40;6.10;;;1.45;;
60225;SDS011;46090;48.436;11.410;2024-02-21T03:53:07;7.15;;;1.92;;
60225;SDS011;46090;48.436;11.410;2024-02-21T03:55:33;8.80;;;1.98;;
60225;SDS011;46090;48.436;11.410;2024-02-21T03:58:00;9.35;;;2.20;;
60225;SDS011;46090;48.436;11.410;2024-02-21T04:00:27;11.05;;;1.65;;
60225;SDS011;46090;48.436;11.410;2024-02-21T04:02:54;8.80;;;2.20;;
60225;SDS011;46090;48.436;11.410;2024-02-21T04:05:22;5.93;;;1.88;;
60225;SDS011;46090;48.436;11.410;2024-02-21T04:07:49;8.45;;;2.10;;
60225;SDS011;46090;48.436;11.410;2024-02-21T04:10:16;8.23;;;2.67;;
60225;SDS011;46090;48.436;11.410;2024-02-21T04:12:42;5.78;;;2.05;;
60225;SDS011;46090;48.436;11.410;2024-02-21T04:15:09;6.47;;;2.00;;
60225;SDS011;46090;48.436;11.410;2024-02-21T04:17:37;7.45;;;1.88;;
60225;SDS011;46090;48.436;11.410;2024-02-21T04:20:04;4.30;;;1.75;;
60225;SDS011;46090;48.436;11.410;2024-02-21T04:22:32;6.88;;;1.70;;
60225;SDS011;46090;48.436;11.410;2024-02-21T04:25:00;4.22;;;1.30;;
60225;SDS011;46090;48.436;11.410;2024-02-21T04:27:27;8.15;;;1.73;;
60225;SDS011;46090;48.436;11.410;2024-02-21T04:29:54;8.52;;;1.50;;
60225;SDS011;46090;48.436;11.410;2024-02-21T04:32:21;6.03;;;1.77;;
60225;SDS011;46090;48.436;11.410;2024-02-21T04:34:49;4.85;;;2.00;;
60225;SDS011;46090;48.436;11.410;2024-02-21T04:37:15;4.55;;;1.58;;
60225;SDS011;46090;48.436;11.410;2024-02-21T04:39:42;6.85;;;1.60;;
60225;SDS011;46090;48.436;11.410;2024-02-21T04:42:09;7.85;;;2.55;;
60225;SDS011;46090;48.436;11.410;2024-02-21T04:44:35;4.55;;;2.38;;
60225;SDS011;46090;48.436;11.410;2024-02-21T04:47:02;5.63;;;2.28;;
60225;SDS011;46090;48.436;11.410;2024-02-21T04:49:30;6.93;;;1.98;;
60225;SDS011;46090;48.436;11.410;2024-02-21T04:51:57;6.65;;;1.45;;
60225;SDS011;46090;48.436;11.410;2024-02-21T04:54:23;4.47;;;1.45;;
60225;SDS011;46090;48.436;11.410;2024-02-21T04:56:50;5.25;;;1.58;;
60225;SDS011;46090;48.436;11.410;2024-02-21T04:59:19;7.60;;;2.13;;
60225;SDS011;46090;48.436;11.410;2024-02-21T05:01:45;6.70;;;1.60;;
60225;SDS011;46090;48.436;11.410;2024-02-21T05:04:12;5.43;;;1.45;;
60225;SDS011;46090;48.436;11.410;2024-02-21T05:06:39;6.32;;;1.63;;
60225;SDS011;46090;48.436;11.410;2024-02-21T05:09:07;4.72;;;1.58;;
60225;SDS011;46090;48.436;11.410;2024-02-21T05:11:37;6.35;;;1.48;;
60225;SDS011;46090;48.436;11.410;2024-02-21T05:14:04;5.20;;;1.50;;
60225;SDS011;46090;48.436;11.410;2024-02-21T05:16:31;4.47;;;1.20;;
60225;SDS011;46090;48.436;11.410;2024-02-21T05:18:58;5.45;;;1.33;;
60225;SDS011;46090;48.436;11.410;2024-02-21T05:21:25;8.35;;;1.42;;
60225;SDS011;46090;48.436;11.410;2024-02-21T05:23:52;5.32;;;1.23;;
60225;SDS011;46090;48.436;11.410;2024-02-21T05:26:22;5.57;;;1.40;;
60225;SDS011;46090;48.436;11.410;2024-02-21T05:28:49;5.93;;;1.30;;
60225;SDS011;46090;48.436;11.410;2024-02-21T05:31:18;6.20;;;1.27;;
60225;SDS011;46090;48.436;11.410;2024-02-21T05:33:46;5.13;;;1.10;;
60225;SDS011;46090;48.436;11.410;2024-02-21T05:36:13;7.00;;;1.35;;
60225;SDS011;46090;48.436;11.410;2024-02-21T05:38:39;5.10;;;1.50;;
60225;SDS011;46090;48.436;11.410;2024-02-21T05:41:06;4.03;;;1.20;;
60225;SDS011;46090;48.436;11.410;2024-02-21T05:43:38;5.05;;;1.33;;
60225;SDS011;46090;48.436;11.410;2024-02-21T05:46:04;6.10;;;1.42;;
60225;SDS011;46090;48.436;11.410;2024-02-21T05:48:31;8.77;;;1.60;;
60225;SDS011;46090;48.436;11.410;2024-02-21T05:51:03;4.97;;;1.55;;
60225;SDS011;46090;48.436;11.410;2024-02-21T05:53:30;3.45;;;1.27;;
60225;SDS011;46090;48.436;11.410;2024-02-21T05:55:57;6.45;;;1.30;;
60225;SDS011;46090;48.436;11.410;2024-02-21T05:58:24;5.68;;;1.10;;
60225;SDS011;46090;48.436;11.410;2024-02-21T06:00:50;5.60;;;1.20;;
60225;SDS011;46090;48.436;11.410;2024-02-21T06:03:17;4.75;;;1.20;;
60225;SDS011;46090;48.436;11.410;2024-02-21T06:05:44;6.22;;;1.38;;
60225;SDS011;46090;48.436;11.410;2024-02-21T06:08:11;5.07;;;1.25;;
60225;SDS011;46090;48.436;11.410;2024-02-21T06:10:37;5.55;;;1.27;;
60225;SDS011;46090;48.436;11.410;2024-02-21T06:13:04;8.48;;;3.25;;
60225;SDS011;46090;48.436;11.410;2024-02-21T06:15:31;12.82;;;5.40;;
60225;SDS011;46090;48.436;11.410;2024-02-21T06:17:57;13.00;;;5.38;;
60225;SDS011;46090;48.436;11.410;2024-02-21T06:20:24;5.65;;;1.85;;
60225;SDS011;46090;48.436;11.410;2024-02-21T06:22:51;5.10;;;1.70;;
60225;SDS011;46090;48.436;11.410;2024-02-21T06:25:18;6.18;;;2.20;;
60225;SDS011;46090;48.436;11.410;2024-02-21T06:27:45;6.47;;;2.10;;
60225;SDS011;46090;48.436;11.410;2024-02-21T06:30:11;4.28;;;1.50;;
60225;SDS011;46090;48.436;11.410;2024-02-21T06:32:38;5.72;;;1.88;;
60225;SDS011;46090;48.436;11.410;2024-02-21T06:35:05;6.63;;;1.58;;
60225;SDS011;46090;48.436;11.410;2024-02-21T06:37:32;4.93;;;1.48;;
60225;SDS011;46090;48.436;11.410;2024-02-21T06:39:59;6.63;;;1.88;;
60225;SDS011;46090;48.436;11.410;2024-02-21T06:42:26;5.70;;;1.50;;
60225;SDS011;46090;48.436;11.410;2024-02-21T06:44:53;5.15;;;1.35;;
60225;SDS011;46090;48.436;11.410;2024-02-21T06:47:19;6.70;;;1.40;;
60225;SDS011;46090;48.436;11.410;2024-02-21T06:49:49;5.03;;;1.70;;
60225;SDS011;46090;48.436;11.410;2024-02-21T06:52:17;4.63;;;1.25;;
60225;SDS011;46090;48.436;11.410;2024-02-21T06:54:46;4.72;;;1.35;;
60225;SDS011;46090;48.436;11.410;2024-02-21T06:57:13;4.60;;;1.00;;
60225;SDS011;46090;48.436;11.410;2024-02-21T06:59:41;6.68;;;1.33;;
60225;SDS011;46090;48.436;11.410;2024-02-21T07:02:08;7.20;;;1.63;;
60225;SDS011;46090;48.436;11.410;2024-02-21T07:04:35;3.67;;;1.00;;
60225;SDS011;46090;48.436;11.410;2024-02-21T07:07:02;6.45;;;1.13;;
60225;SDS011;46090;48.436;11.410;2024-02-21T07:09:29;5.72;;;1.35;;
60225;SDS011;46090;48.436;11.410;2024-02-21T07:11:58;5.78;;;0.80;;
60225;SDS011;46090;48.436;11.410;2024-02-21T07:14:29;5.53;;;1.02;;
60225;SDS011;46090;48.436;11.410;2024-02-21T07:16:56;2.88;;;0.95;;
60225;SDS011;46090;48.436;11.410;2024-02-21T07:19:23;3.17;;;0.85;;
60225;SDS011;46090;48.436;11.410;2024-02-21T07:21:50;5.90;;;1.10;;
60225;SDS011;46090;48.436;11.410;2024-02-21T07:24:17;4.25;;;1.00;;
60225;SDS011;46090;48.436;11.410;2024-02-21T07:26:44;3.30;;;1.00;;
60225;SDS011;46090;48.436;11.410;2024-02-21T07:29:11;3.25;;;0.98;;
60225;SDS011;46090;48.436;11.410;2024-02-21T07:31:40;6.47;;;0.93;;
60225;SDS011;46090;48.436;11.410;2024-02-21T07:34:07;4.25;;;0.90;;
60225;SDS011;46090;48.436;11.410;2024-02-21T07:36:35;6.05;;;1.20;;
60225;SDS011;46090;48.436;11.410;2024-02-21T07:39:03;4.43;;;0.65;;
60225;SDS011;46090;48.436;11.410;2024-02-21T07:41:31;3.85;;;0.90;;
60225;SDS011;46090;48.436;11.410;2024-02-21T07:43:57;7.22;;;1.10;;
60225;SDS011;46090;48.436;11.410;2024-02-21T07:46:25;4.38;;;1.05;;
60225;SDS011;46090;48.436;11.410;2024-02-21T07:48:52;4.00;;;0.90;;
60225;SDS011;46090;48.436;11.410;2024-02-21T07:51:18;3.47;;;0.90;;
60225;SDS011;46090;48.436;11.410;2024-02-21T07:53:45;4.47;;;0.82;;
60225;SDS011;46090;48.436;11.410;2024-02-21T07:56:12;3.38;;;0.80;;
60225;SDS011;46090;48.436;11.410;2024-02-21T07:58:43;6.32;;;1.25;;
60225;SDS011;46090;48.436;11.410;2024-02-21T08:01:10;4.05;;;1.02;;
60225;SDS011;46090;48.436;11.410;2024-02-21T08:03:37;4.78;;;1.10;;
60225;SDS011;46090;48.436;11.410;2024-02-21T08:06:04;4.40;;;0.80;;
60225;SDS011;46090;48.436;11.410;2024-02-21T08:08:30;2.83;;;0.80;;
60225;SDS011;46090;48.436;11.410;2024-02-21T08:10:57;2.58;;;0.60;;
60225;SDS011;46090;48.436;11.410;2024-02-21T08:13:24;3.15;;;0.90;;
60225;SDS011;46090;48.436;11.410;2024-02-21T08:15:51;3.13;;;0.80;;
60225;SDS011;46090;48.436;11.410;2024-02-21T08:18:17;1.73;;;0.82;;
60225;SDS011;46090;48.436;11.410;2024-02-21T08:20:44;2.20;;;0.60;;
60225;SDS011;46090;48.436;11.410;2024-02-21T08:23:11;3.10;;;0.70;;
60225;SDS011;46090;48.436;11.410;2024-02-21T08:25:37;2.25;;;0.70;;
60225;SDS011;46090;48.436;11.410;2024-02-21T08:28:04;3.75;;;0.82;;
60225;SDS011;46090;48.436;11.410;2024-02-21T08:30:32;2.00;;;0.70;;
60225;SDS011;46090;48.436;11.410;2024-02-21T08:32:58;4.07;;;0.80;;
60225;SDS011;46090;48.436;11.410;2024-02-21T08:35:25;3.72;;;0.90;;
60225;SDS011;46090;48.436;11.410;2024-02-21T08:37:52;4.15;;;0.93;;
60225;SDS011;46090;48.436;11.410;2024-02-21T08:40:19;5.07;;;0.70;;
60225;SDS011;46090;48.436;11.410;2024-02-21T08:42:48;3.22;;;0.77;;
60225;SDS011;46090;48.436;11.410;2024-02-21T08:45:15;2.85;;;0.70;;
60225;SDS011;46090;48.436;11.410;2024-02-21T08:47:42;4.20;;;0.85;;
60225;SDS011;46090;48.436;11.410;2024-02-21T08:50:09;3.10;;;0.90;;
60225;SDS011;46090;48.436;11.410;2024-02-21T08:52:53;2.85;;;0.85;;
60225;SDS011;46090;48.436;11.410;2024-02-21T08:55:20;2.75;;;0.50;;
60225;SDS011;46090;48.436;11.410;2024-02-21T08:57:46;4.95;;;1.00;;
60225;SDS011;46090;48.436;11.410;2024-02-21T09:00:14;3.70;;;0.68;;
60225;SDS011;46090;48.436;11.410;2024-02-21T09:02:41;3.72;;;0.70;;
60225;SDS011;46090;48.436;11.410;2024-02-21T09:05:11;2.00;;;0.60;;
60225;SDS011;46090;48.436;11.410;2024-02-21T09:07:38;3.63;;;0.80;;
60225;SDS011;46090;48.436;11.410;2024-02-21T09:10:05;3.13;;;0.80;;
60225;SDS011;46090;48.436;11.410;2024-02-21T09:12:33;3.78;;;0.52;;
60225;SDS011;46090;48.436;11.410;2024-02-21T09:15:00;4.03;;;0.90;;
60225;SDS011;46090;48.436;11.410;2024-02-21T09:17:26;2.65;;;0.70;;
60225;SDS011;46090;48.436;11.410;2024-02-21T09:19:56;4.57;;;0.70;;
60225;SDS011;46090;48.436;11.410;2024-02-21T09:22:26;3.70;;;0.73;;
60225;SDS011;46090;48.436;11.410;2024-02-21T09:24:53;4.13;;;0.85;;
60225;SDS011;46090;48.436;11.410;2024-02-21T09:27:19;7.10;;;1.30;;
60225;SDS011;46090;48.436;11.410;2024-02-21T09:29:46;4.40;;;1.08;;
60225;SDS011;46090;48.436;11.410;2024-02-21T09:32:13;4.43;;;1.33;;
60225;SDS011;46090;48.436;11.410;2024-02-21T09:34:40;4.20;;;0.70;;
60225;SDS011;46090;48.436;11.410;2024-02-21T09:37:07;4.18;;;0.75;;
60225;SDS011;46090;48.436;11.410;2024-02-21T09:39:34;2.80;;;0.77;;
60225;SDS011;46090;48.436;11.410;2024-02-21T09:42:05;4.03;;;0.90;;
60225;SDS011;46090;48.436;11.410;2024-02-21T09:44:36;2.45;;;0.75;;
60225;SDS011;46090;48.436;11.410;2024-02-21T09:47:12;4.97;;;0.70;;
60225;SDS011;46090;48.436;11.410;2024-02-21T09:49:44;3.67;;;0.90;;
60225;SDS011;46090;48.436;11.410;2024-02-21T09:52:12;2.75;;;0.70;;
60225;SDS011;46090;48.436;11.410;2024-02-21T09:54:40;5.65;;;1.27;;
60225;SDS011;46090;48.436;11.410;2024-02-21T09:57:11;3.10;;;0.85;;
60225;SDS011;46090;48.436;11.410;2024-02-21T09:59:38;7.45;;;1.20;;
60225;SDS011;46090;48.436;11.410;2024-02-21T10:02:05;4.68;;;1.38;;
60225;SDS011;46090;48.436;11.410;2024-02-21T10:04:33;4.03;;;0.80;;
60225;SDS011;46090;48.436;11.410;2024-02-21T10:07:00;3.30;;;0.65;;
60225;SDS011;46090;48.436;11.410;2024-02-21T10:09:27;2.30;;;0.68;;
60225;SDS011;46090;48.436;11.410;2024-02-21T10:11:55;2.97;;;0.70;;
60225;SDS011;46090;48.436;11.410;2024-02-21T10:14:23;3.15;;;1.02;;
60225;SDS011;46090;48.436;11.410;2024-02-21T10:16:56;4.25;;;0.60;;
60225;SDS011;46090;48.436;11.410;2024-02-21T10:19:27;4.32;;;0.60;;
60225;SDS011;46090;48.436;11.410;2024-02-21T10:24:31;3.22;;;0.77;;
60225;SDS011;46090;48.436;11.410;2024-02-21T10:26:59;3.97;;;0.63;;
60225;SDS011;46090;48.436;11.410;2024-02-21T10:29:31;8.07;;;0.57;;
60225;SDS011;46090;48.436;11.410;2024-02-21T10:34:32;3.35;;;0.50;;
60225;SDS011;46090;48.436;11.410;2024-02-21T10:36:59;3.58;;;0.60;;
60225;SDS011;46090;48.436;11.410;2024-02-21T10:39:37;1.90;;;0.40;;
60225;SDS011;46090;48.436;11.410;2024-02-21T10:42:05;3.17;;;0.50;;
60225;SDS011;46090;48.436;11.410;2024-02-21T10:44:33;3.10;;;0.65;;
60225;SDS011;46090;48.436;11.410;2024-02-21T10:47:04;1.88;;;0.40;;
60225;SDS011;46090;48.436;11.410;2024-02-21T10:49:38;5.00;;;0.50;;
60225;SDS011;46090;48.436;11.410;2024-02-21T10:57:31;4.15;;;0.60;;
60225;SDS011;46090;48.436;11.410;2024-02-21T10:59:58;2.20;;;0.47;;
60225;SDS011;46090;48.436;11.410;2024-02-21T11:02:26;3.80;;;0.50;;
60225;SDS011;46090;48.436;11.410;2024-02-21T11:04:55;2.22;;;0.40;;
60225;SDS011;46090;48.436;11.410;2024-02-21T11:07:22;2.90;;;0.40;;
60225;SDS011;46090;48.436;11.410;2024-02-21T11:09:52;2.45;;;0.70;;
60225;SDS011;46090;48.436;11.410;2024-02-21T11:12:21;1.40;;;0.28;;
60225;SDS011;46090;48.436;11.410;2024-02-21T11:14:50;2.70;;;0.40;;
60225;SDS011;46090;48.436;11.410;2024-02-21T11:17:18;1.85;;;0.35;;
60225;SDS011;46090;48.436;11.410;2024-02-21T11:19:47;1.75;;;0.40;;
60225;SDS011;46090;48.436;11.410;2024-02-21T11:22:15;2.17;;;0.43;;
60225;SDS011;46090;48.436;11.410;2024-02-21T11:24:43;2.15;;;0.40;;
60225;SDS011;46090;48.436;11.410;2024-02-21T11:27:18;2.58;;;0.50;;
60225;SDS011;46090;48.436;11.410;2024-02-21T11:29:58;2.00;;;0.35;;
60225;SDS011;46090;48.436;11.410;2024-02-21T11:32:26;2.55;;;0.30;;
60225;SDS011;46090;48.436;11.410;2024-02-21T11:34:54;2.60;;;0.30;;
60225;SDS011;46090;48.436;11.410;2024-02-21T11:37:34;2.35;;;0.40;;
60225;SDS011;46090;48.436;11.410;2024-02-21T11:40:03;1.40;;;0.30;;
60225;SDS011;46090;48.436;11.410;2024-02-21T11:42:33;1.17;;;0.40;;
60225;SDS011;46090;48.436;11.410;2024-02-21T11:47:52;1.85;;;0.30;;
60225;SDS011;46090;48.436;11.410;2024-02-21T11:50:19;2.55;;;0.32;;
60225;SDS011;46090;48.436;11.410;2024-02-21T11:52:48;2.17;;;0.55;;
60225;SDS011;46090;48.436;11.410;2024-02-21T11:55:14;2.20;;;0.40;;
60225;SDS011;46090;48.436;11.410;2024-02-21T11:57:41;1.48;;;0.30;;
60225;SDS011;46090;48.436;11.410;2024-02-21T12:02:42;1.80;;;0.35;;
60225;SDS011;46090;48.436;11.410;2024-02-21T12:05:09;2.13;;;0.30;;
60225;SDS011;46090;48.436;11.410;2024-02-21T12:07:37;1.25;;;0.20;;
60225;SDS011;46090;48.436;11.410;2024-02-21T12:10:10;1.38;;;0.30;;
60225;SDS011;46090;48.436;11.410;2024-02-21T12:12:38;3.08;;;0.50;;
60225;SDS011;46090;48.436;11.410;2024-02-21T12:15:05;1.33;;;0.30;;
60225;SDS011;46090;48.436;11.410;2024-02-21T12:17:34;1.42;;;0.20;;
60225;SDS011;46090;48.436;11.410;2024-02-21T12:20:04;1.90;;;0.30;;
60225;SDS011;46090;48.436;11.410;2024-02-21T12:22:32;1.42;;;0.30;;
60225;SDS011;46090;48.436;11.410;2024-02-21T12:24:59;1.67;;;0.20;;
60225;SDS011;46090;48.436;11.410;2024-02-21T12:27:26;1.38;;;0.20;;
60225;SDS011;46090;48.436;11.410;2024-02-21T12:29:52;1.15;;;0.20;;
60225;SDS011;46090;48.436;11.410;2024-02-21T12:32:19;1.35;;;0.20;;
60225;SDS011;46090;48.436;11.410;2024-02-21T12:34:46;1.77;;;0.20;;
60225;SDS011;46090;48.436;11.410;2024-02-21T12:37:21;1.52;;;0.20;;
60225;SDS011;46090;48.436;11.410;2024-02-21T12:39:48;0.63;;;0.20;;
60225;SDS011;46090;48.436;11.410;2024-02-21T12:42:15;1.35;;;0.20;;
60225;SDS011;46090;48.436;11.410;2024-02-21T12:44:42;0.90;;;0.10;;
60225;SDS011;46090;48.436;11.410;2024-02-21T12:47:09;6.25;;;0.30;;
60225;SDS011;46090;48.436;11.410;2024-02-21T12:49:36;1.30;;;0.20;;
60225;SDS011;46090;48.436;11.410;2024-02-21T12:52:05;1.30;;;0.22;;
60225;SDS011;46090;48.436;11.410;2024-02-21T12:54:32;0.30;;;0.10;;
60225;SDS011;46090;48.436;11.410;2024-02-21T12:57:00;2.50;;;0.20;;
60225;SDS011;46090;48.436;11.410;2024-02-21T12:59:30;0.65;;;0.10;;
60225;SDS011;46090;48.436;11.410;2024-02-21T13:01:56;0.88;;;0.20;;
60225;SDS011;46090;48.436;11.410;2024-02-21T13:04:23;1.73;;;0.30;;
60225;SDS011;46090;48.436;11.410;2024-02-21T13:06:54;2.53;;;0.30;;
60225;SDS011;46090;48.436;11.410;2024-02-21T13:09:22;1.00;;;0.10;;
60225;SDS011;46090;48.436;11.410;2024-02-21T13:11:48;1.23;;;0.32;;
60225;SDS011;46090;48.436;11.410;2024-02-21T13:14:17;0.77;;;0.20;;
60225;SDS011;46090;48.436;11.410;2024-02-21T13:16:44;0.40;;;0.00;;
60225;SDS011;46090;48.436;11.410;2024-02-21T13:19:11;1.10;;;0.20;;
60225;SDS011;46090;48.436;11.410;2024-02-21T13:21:40;1.08;;;0.20;;
60225;SDS011;46090;48.436;11.410;2024-02-21T13:24:07;0.30;;;0.10;;
60225;SDS011;46090;48.436;11.410;2024-02-21T13:26:34;1.15;;;0.10;;
60225;SDS011;46090;48.436;11.410;2024-02-21T13:29:01;0.47;;;0.10;;
60225;SDS011;46090;48.436;11.410;2024-02-21T13:31:28;0.98;;;0.15;;
60225;SDS011;46090;48.436;11.410;2024-02-21T13:33:54;0.55;;;0.17;;
60225;SDS011;46090;48.436;11.410;2024-02-21T13:36:21;1.30;;;0.20;;
60225;SDS011;46090;48.436;11.410;2024-02-21T13:38:48;1.50;;;0.10;;
60225;SDS011;46090;48.436;11.410;2024-02-21T13:41:15;5.05;;;0.22;;
60225;SDS011;46090;48.436;11.410;2024-02-21T13:43:42;1.85;;;0.20;;
60225;SDS011;46090;48.436;11.410;2024-02-21T13:46:09;1.77;;;0.17;;
60225;SDS011;46090;48.436;11.410;2024-02-21T13:48:37;1.55;;;0.20;;
60225;SDS011;46090;48.436;11.410;2024-02-21T13:51:04;1.88;;;0.10;;
60225;SDS011;46090;48.436;11.410;2024-02-21T13:53:31;1.05;;;0.20;;
60225;SDS011;46090;48.436;11.410;2024-02-21T13:55:58;0.70;;;0.10;;
60225;SDS011;46090;48.436;11.410;2024-02-21T13:58:24;1.13;;;0.10;;
60225;SDS011;46090;48.436;11.410;2024-02-21T14:00:52;2.45;;;0.10;;
60225;SDS011;46090;48.436;11.410;2024-02-21T14:03:20;3.53;;;0.10;;
60225;SDS011;46090;48.436;11.410;2024-02-21T14:05:47;1.25;;;0.10;;
60225;SDS011;46090;48.436;11.410;2024-02-21T14:08:15;2.33;;;0.10;;
60225;SDS011;46090;48.436;11.410;2024-02-21T14:10:42;0.35;;;0.10;;
60225;SDS011;46090;48.436;11.410;2024-02-21T14:13:09;0.88;;;0.10;;
60225;SDS011;46090;48.436;11.410;2024-02-21T14:15:35;0.80;;;0.10;;
60225;SDS011;46090;48.436;11.410;2024-02-21T14:18:04;1.73;;;0.20;;
60225;SDS011;46090;48.436;11.410;2024-02-21T14:20:35;1.33;;;0.10;;
60225;SDS011;46090;48.436;11.410;2024-02-21T14:23:02;0.88;;;0.17;;
60225;SDS011;46090;48.436;11.410;2024-02-21T14:25:29;1.35;;;0.10;;
60225;SDS011;46090;48.436;11.410;2024-02-21T14:27:56;0.60;;;0.10;;
60225;SDS011;46090;48.436;11.410;2024-02-21T14:30:23;0.93;;;0.10;;
60225;SDS011;46090;48.436;11.410;2024-02-21T14:32:50;1.75;;;0.30;;
60225;SDS011;46090;48.436;11.410;2024-02-21T14:35:17;2.08;;;0.10;;
60225;SDS011;46090;48.436;11.410;2024-02-21T14:37:44;0.80;;;0.10;;
60225;SDS011;46090;48.436;11.410;2024-02-21T14:40:12;1.35;;;0.20;;
60225;SDS011;46090;48.436;11.410;2024-02-21T14:42:38;2.17;;;0.40;;
60225;SDS011;46090;48.436;11.410;2024-02-21T14:45:05;0.47;;;0.10;;
60225;SDS011;46090;48.436;11.410;2024-02-21T14:47:32;2.65;;;0.10;;
60225;SDS011;46090;48.436;11.410;2024-02-21T14:50:01;1.48;;;0.15;;